NCAR-RAP Real-Time Weather Data

Output produced by METARs form (06 May 2021  16:10 UTC)
found at http://weather.rap.ucar.edu/surface/
 
KLSE 061553Z 00000KT 10SM CLR 13/06 A3015 RMK AO2 SLP210 T01330056
KLSE 061453Z 00000KT 10SM CLR 12/06 A3016 RMK AO2 SLP217 T01170061 50000
KLSE 061353Z 34006KT 10SM FEW017 10/06 A3018 RMK AO2 SLP221 T01000056
KLSE 061253Z 32008KT 10SM CLR 09/06 A3017 RMK AO2 SLP220 T00940056
KLSE 061153Z 00000KT 10SM CLR 07/06 A3016 RMK AO2 SLP216 60005 70016 T00720061 10083 20067 53003
KLSE 061053Z 00000KT 10SM FEW080 OVC120 07/06 A3016 RMK AO2 SLP214 T00720056
KLSE 060953Z AUTO 33009KT 10SM FEW015 OVC070 08/05 A3016 RMK AO2 SLP213 T00780050
KLSE 060853Z AUTO 04003KT 10SM OVC047 08/05 A3015 RMK AO2 RAB01E30 SLP211 P0000 60005 T00780050 58002
KLSE 060753Z AUTO 02006KT 10SM SCT027 BKN034 OVC043 08/06 A3016 RMK AO2 RAE51 SLP212 P0002 T00780056
KLSE 060744Z AUTO 01005KT 10SM -RA FEW009 BKN031 OVC044 08/06 A3016 RMK AO2 P0002 T00780056
KLSE 060653Z AUTO 36008KT 9SM -RA SCT022 BKN028 OVC034 08/06 A3016 RMK AO2 SLP213 P0003 T00780056
KLSE 060633Z AUTO 01007KT 7SM -RA FEW010 BKN023 OVC038 08/06 A3016 RMK AO2 P0002 T00780056
KLSE 060620Z AUTO 02006KT 9SM -RA SCT010 OVC037 08/06 A3016 RMK AO2 P0001 T00780056
KLSE 060607Z AUTO 01005KT 9SM -RA BKN010 BKN018 OVC046 08/07 A3016 RMK AO2 P0000 T00830067
KLSE 060553Z AUTO 34005KT 9SM -RA FEW012 SCT032 OVC044 08/07 A3016 RMK AO2 SLP214 P0004 60011 T00830067 10117 20083 401720039 58001
KLSE 060453Z AUTO 35005KT 10SM -RA BKN040 OVC065 08/06 A3016 RMK AO2 SLP214 P0002 T00830061
KLSE 060353Z AUTO 34007KT 8SM -RA OVC042 09/06 A3017 RMK AO2 SLP217 P0003 T00890061
KLSE 060253Z AUTO 34006KT 10SM -RA OVC055 09/06 A3016 RMK AO2 SLP216 P0001 60002 T00940056 53006
KLSE 060153Z 34004KT 10SM -RA FEW042 OVC055 10/06 A3015 RMK AO2 RAB0059 SLP211 P0001 T01000056